createdAt,value
2019-04-04T00:03:58.648Z,17.50
2019-04-04T00:09:04.666Z,13.60
2019-04-04T00:14:09.316Z,15.33
2019-04-04T00:19:13.686Z,15.23
2019-04-04T00:24:18.037Z,17.23
2019-04-04T00:29:22.373Z,19.97
2019-04-04T00:34:28.159Z,14.53
2019-04-04T00:39:32.997Z,15.77
2019-04-04T00:44:37.476Z,18.50
2019-04-04T00:49:41.803Z,20.67
2019-04-04T00:54:46.179Z,15.37
2019-04-04T00:59:53.294Z,21.07
2019-04-04T01:04:57.322Z,10.90
2019-04-04T01:10:01.671Z,15.83
2019-04-04T01:15:06.545Z,16.17
2019-04-04T01:20:11.352Z,15.43
2019-04-04T01:25:15.723Z,12.87
2019-04-04T01:30:20.238Z,16.63
2019-04-04T01:35:24.791Z,15.23
2019-04-04T01:40:29.135Z,17.57
2019-04-04T01:45:33.509Z,12.43
2019-04-04T01:50:37.890Z,16.33
2019-04-04T01:55:42.272Z,12.83
2019-04-04T02:00:46.674Z,14.70
2019-04-04T02:05:51.726Z,11.70
2019-04-04T02:10:56.080Z,16.17
2019-04-04T02:16:00.439Z,13.90
2019-04-04T02:21:04.821Z,14.07
2019-04-04T02:26:09.221Z,14.60
2019-04-04T02:31:13.969Z,11.43
2019-04-04T02:36:18.794Z,10.50
2019-04-04T02:41:23.102Z,11.03
2019-04-04T02:46:27.502Z,12.63
2019-04-04T02:51:31.847Z,11.60
2019-04-04T02:56:36.471Z,13.40
2019-04-04T03:01:40.947Z,12.73
2019-04-04T03:06:45.350Z,12.15
2019-04-04T03:11:53.550Z,12.60
2019-04-04T03:16:56.897Z,14.63
2019-04-04T03:22:01.947Z,10.00
2019-04-04T03:27:06.297Z,13.07
2019-04-04T03:32:14.380Z,11.07
2019-04-04T03:37:16.757Z,11.90
2019-04-04T03:42:21.109Z,9.03
2019-04-04T03:47:25.462Z,10.57
2019-04-04T03:52:29.869Z,12.57
2019-04-04T03:57:34.208Z,9.53
2019-04-04T04:02:38.682Z,12.10
2019-04-04T04:07:43.041Z,9.83
2019-04-04T04:12:47.380Z,10.37
2019-04-04T04:17:51.789Z,13.63
2019-04-04T04:22:56.196Z,10.07
2019-04-04T04:28:02.948Z,12.27
2019-04-04T04:33:06.614Z,12.57
2019-04-04T04:38:11.191Z,14.57
2019-04-04T04:43:16.126Z,14.87
2019-04-04T04:48:21.008Z,11.83
2019-04-04T04:53:25.419Z,13.53
2019-04-04T04:58:29.808Z,17.27
2019-04-04T05:03:34.213Z,14.57
2019-04-04T05:08:39.038Z,12.93
2019-04-04T05:13:44.910Z,11.60
2019-04-04T05:18:49.287Z,14.53
2019-04-04T05:23:53.675Z,11.73
2019-04-04T05:28:59.739Z,10.90
2019-04-04T05:34:05.951Z,14.43
2019-04-04T05:39:10.336Z,12.90
2019-04-04T05:44:14.649Z,13.73
2019-04-04T05:49:19.020Z,13.67
2019-04-04T05:54:23.388Z,13.37
2019-04-04T05:59:27.771Z,10.20
2019-04-04T06:04:32.118Z,12.83
2019-04-04T06:09:36.459Z,10.57
2019-04-04T06:14:40.821Z,8.77
2019-04-04T06:19:45.495Z,9.33
2019-04-04T06:24:52.081Z,10.50
2019-04-04T06:29:55.964Z,8.97
2019-04-04T06:35:00.337Z,8.77
2019-04-04T06:40:06.575Z,8.40
2019-04-04T06:45:11.047Z,8.57
2019-04-04T06:50:15.469Z,9.10
2019-04-04T06:55:19.846Z,8.70
2019-04-04T07:00:24.267Z,7.73
2019-04-04T07:05:28.653Z,9.87
2019-04-04T07:10:33.017Z,7.90
2019-04-04T07:15:46.708Z,7.87
2019-04-04T07:20:43.626Z,9.53
2019-04-04T07:25:48.051Z,7.50
2019-04-04T07:30:54.589Z,8.80
2019-04-04T07:35:58.451Z,8.13
2019-04-04T07:41:02.815Z,7.40
2019-04-04T07:46:16.389Z,8.03
2019-04-04T07:51:13.275Z,7.10
2019-04-04T07:56:17.703Z,7.57
2019-04-04T08:01:22.076Z,7.27
2019-04-04T08:06:26.414Z,6.83
2019-04-04T08:11:30.818Z,6.27
2019-04-04T08:16:35.162Z,7.20
2019-04-04T08:21:39.514Z,7.60
2019-04-04T08:26:43.888Z,6.77
2019-04-04T08:31:48.564Z,6.78
2019-04-04T08:36:52.938Z,6.50
2019-04-04T08:41:57.297Z,6.30
2019-04-04T08:47:01.677Z,9.93
2019-04-04T08:52:16.132Z,6.20
2019-04-04T08:57:12.242Z,6.57
2019-04-04T09:02:16.597Z,6.47
2019-04-04T09:07:20.966Z,7.47
2019-04-04T09:12:25.304Z,6.83
2019-04-04T09:17:29.677Z,5.70
2019-04-04T09:22:34.021Z,8.00
2019-04-04T09:27:38.411Z,5.77
2019-04-04T09:32:42.848Z,4.03
2019-04-04T09:37:47.225Z,4.77
2019-04-04T09:42:51.649Z,4.60
2019-04-04T09:47:57.187Z,5.40
2019-04-04T09:53:01.524Z,4.70
2019-04-04T09:58:05.880Z,5.60
2019-04-04T10:03:10.228Z,5.40
2019-04-04T10:08:14.589Z,7.80
2019-04-04T10:13:18.946Z,5.07
2019-04-04T10:18:23.321Z,5.70
2019-04-04T10:23:27.964Z,5.13
2019-04-04T10:28:32.305Z,5.47
2019-04-04T10:33:36.668Z,4.77
2019-04-04T10:38:41.054Z,5.03
2019-04-04T10:43:46.520Z,5.90
2019-04-04T10:48:50.873Z,5.30
2019-04-04T10:53:55.247Z,6.03
2019-04-04T10:59:00.553Z,7.00
2019-04-04T11:04:04.899Z,5.40
2019-04-04T11:09:09.269Z,5.40
2019-04-04T11:14:13.769Z,6.03
2019-04-04T11:19:30.375Z,5.33
2019-04-04T11:24:24.157Z,5.33
2019-04-04T11:29:28.514Z,5.60
2019-04-04T11:34:32.919Z,5.43
2019-04-04T11:39:37.277Z,8.13
2019-04-04T11:44:41.667Z,4.80
2019-04-04T11:49:46.034Z,7.20
2019-04-04T11:54:58.011Z,5.27
2019-04-04T12:00:02.573Z,6.37
2019-04-04T12:05:08.189Z,5.93
2019-04-04T12:10:12.789Z,5.20
2019-04-04T12:15:17.391Z,5.33
2019-04-04T12:20:21.761Z,5.40
2019-04-04T12:25:26.166Z,6.47
2019-04-04T12:30:31.605Z,6.03
2019-04-04T12:35:35.978Z,6.47
2019-04-04T12:40:40.329Z,8.30
2019-04-04T12:45:44.941Z,6.00
2019-04-04T12:50:49.283Z,9.97
2019-04-04T12:55:54.320Z,5.60
2019-04-04T13:00:59.003Z,5.57
2019-04-04T13:06:03.398Z,7.20
2019-04-04T13:11:07.736Z,7.43
2019-04-04T13:16:12.108Z,7.73
2019-04-04T13:21:16.540Z,6.77
2019-04-04T13:26:20.985Z,13.07
2019-04-04T13:31:25.491Z,8.07
2019-04-04T13:36:30.927Z,6.73
2019-04-04T13:41:35.281Z,9.83
2019-04-04T13:46:39.670Z,6.77
2019-04-04T13:51:44.078Z,6.20
2019-04-04T13:56:48.431Z,9.57
2019-04-04T14:01:52.807Z,6.63
2019-04-04T14:06:57.154Z,6.00
2019-04-04T14:12:01.503Z,7.40
2019-04-04T14:17:05.922Z,6.63
2019-04-04T14:22:11.392Z,8.83
2019-04-04T14:27:15.805Z,7.30
2019-04-04T14:32:30.509Z,7.03
2019-04-04T14:37:35.178Z,10.23
2019-04-04T14:42:44.569Z,5.90
2019-04-04T14:47:50.606Z,7.53
2019-04-04T14:52:54.972Z,9.60
2019-04-04T14:58:00.933Z,8.07
2019-04-04T15:03:05.415Z,10.90
2019-04-04T15:08:09.757Z,4.70
2019-04-04T15:13:14.167Z,6.40
2019-04-04T15:18:18.512Z,4.60
2019-04-04T15:23:22.887Z,7.37
2019-04-04T15:28:27.323Z,7.90
2019-04-04T15:33:31.658Z,5.90
2019-04-04T15:38:36.026Z,5.60
2019-04-04T15:43:40.381Z,6.60
2019-04-04T15:48:44.826Z,7.97
2019-04-04T15:53:49.209Z,5.93
2019-04-04T15:58:53.578Z,5.30
2019-04-04T16:03:57.949Z,7.10
2019-04-04T16:09:02.322Z,7.27
2019-04-04T16:14:08.285Z,7.03
2019-04-04T16:19:12.787Z,8.47
2019-04-04T16:24:17.166Z,6.57
2019-04-04T16:29:21.521Z,8.23
2019-04-04T16:34:25.960Z,6.50
2019-04-04T16:39:30.343Z,6.67
2019-04-04T16:44:34.723Z,10.97
2019-04-04T16:49:39.091Z,10.27
2019-04-04T16:54:43.466Z,10.47
2019-04-04T16:59:47.967Z,9.17
2019-04-04T17:04:54.121Z,10.30
2019-04-04T17:10:01.509Z,7.53
2019-04-04T17:15:07.450Z,8.13
2019-04-04T17:20:35.164Z,10.57
2019-04-04T17:25:39.615Z,8.53
2019-04-04T17:30:46.147Z,9.10
2019-04-04T17:35:59.127Z,8.90
2019-04-04T17:41:09.965Z,10.00
2019-04-04T17:46:23.321Z,12.83
2019-04-04T17:51:31.831Z,10.40
2019-04-04T17:56:44.340Z,10.17
2019-04-04T18:01:51.626Z,8.30
2019-04-04T18:06:59.453Z,7.33
2019-04-04T18:12:06.329Z,7.15
2019-04-04T18:17:17.268Z,9.03
2019-04-04T18:22:36.363Z,8.10
2019-04-04T18:27:44.173Z,7.93
2019-04-04T18:32:52.437Z,7.13
2019-04-04T18:37:57.675Z,7.07
2019-04-04T18:43:08.311Z,16.00
2019-04-04T18:48:17.489Z,9.70
2019-04-04T18:53:25.147Z,8.73
2019-04-04T18:58:32.588Z,7.67
2019-04-04T19:03:36.938Z,10.67
2019-04-04T19:08:41.502Z,6.93
2019-04-04T19:13:45.975Z,8.37
2019-04-04T19:18:50.374Z,7.30
2019-04-04T19:23:55.922Z,9.87
2019-04-04T19:29:00.259Z,10.10
2019-04-04T19:34:04.703Z,7.43
2019-04-04T19:39:11.013Z,9.57
2019-04-04T19:44:15.368Z,7.00
2019-04-04T19:49:19.712Z,10.53
2019-04-04T19:54:24.092Z,42.50
2019-04-04T19:59:29.510Z,7.80
2019-04-04T20:04:33.910Z,7.73
2019-04-04T20:09:38.231Z,7.67
2019-04-04T20:14:42.673Z,12.43
2019-04-04T20:19:47.047Z,8.27
2019-04-04T20:24:57.334Z,8.47
2019-04-04T20:30:01.870Z,7.73
2019-04-04T20:35:08.127Z,7.37
2019-04-04T20:40:12.634Z,9.37
2019-04-04T20:45:17.188Z,7.60
2019-04-04T20:50:21.834Z,7.60
2019-04-04T20:55:35.098Z,8.57
2019-04-04T21:00:56.058Z,8.00
2019-04-04T21:06:03.635Z,8.10
2019-04-04T21:11:10.372Z,9.53
2019-04-04T21:16:14.713Z,7.67
2019-04-04T21:21:19.075Z,7.47
2019-04-04T21:26:23.411Z,9.10
2019-04-04T21:31:27.793Z,8.40
2019-04-04T21:36:32.141Z,10.53
2019-04-04T21:41:36.491Z,7.27
2019-04-04T21:46:40.956Z,6.87
2019-04-04T21:51:45.291Z,7.57
2019-04-04T21:56:49.631Z,8.73
2019-04-04T22:01:53.971Z,8.70
2019-04-04T22:06:58.928Z,8.43
2019-04-04T22:12:03.275Z,23.67
2019-04-04T22:17:07.614Z,8.27
2019-04-04T22:22:11.955Z,7.20
2019-04-04T22:27:16.306Z,8.40
2019-04-04T22:32:20.686Z,10.47
2019-04-04T22:37:25.062Z,9.90
2019-04-04T22:42:29.426Z,10.40
2019-04-04T22:47:33.814Z,7.33
2019-04-04T22:52:38.154Z,8.33
2019-04-04T22:57:42.527Z,9.77
2019-04-04T23:02:47.026Z,9.93
2019-04-04T23:07:51.418Z,10.33
2019-04-04T23:12:55.797Z,7.50
2019-04-04T23:18:00.164Z,6.97
2019-04-04T23:23:04.511Z,11.07
2019-04-04T23:28:08.890Z,7.83
2019-04-04T23:33:13.256Z,9.17
2019-04-04T23:38:17.600Z,8.20
2019-04-04T23:43:21.978Z,10.43
2019-04-04T23:48:26.330Z,22.20
2019-04-04T23:53:30.681Z,32.27
2019-04-04T23:58:35.036Z,44.37
